Irving South's Hourly Summary for Sunday, May 13, 2018
Hour Temp
(f)
RH
(%)
Solar Rad.
(MJ/m2)
Rainfall
(in)
Wind
(mph)
5/13/2018 12:00 AM 78 61 0 0 1.17
5/13/2018 1:00 AM 77 66 0 0 1.98
5/13/2018 2:00 AM 76 71 0 0 2.33
5/13/2018 3:00 AM 75 75 0 0 2.67
5/13/2018 4:00 AM 74 78 0 0 2.92
5/13/2018 5:00 AM 73 80 0 0 2.14
5/13/2018 6:00 AM 72 84 0 0 2.82
5/13/2018 7:00 AM 71 83 0.02 0 3.7
5/13/2018 8:00 AM 72 81 0.15 0 1.71
5/13/2018 9:00 AM 74 72 0.94 0 2.16
5/13/2018 10:00 AM 77 65 1.45 0 4.2
5/13/2018 11:00 AM 79 59 2.18 0 3.99
5/13/2018 12:00 PM 80 56 1.97 0 4.33
5/13/2018 1:00 PM 83 51 3.43 0 4.45
5/13/2018 2:00 PM 86 46 3.81 0 3.95
5/13/2018 3:00 PM 87 43 3.12 0 3.62
5/13/2018 4:00 PM 88 43 3.15 0 4.67
5/13/2018 5:00 PM 89 41 2.26 0 3.06
5/13/2018 6:00 PM 88 41 1.84 0 3.99
5/13/2018 7:00 PM 86 44 0.49 0 2.98
5/13/2018 8:00 PM 85 45 0.31 0 1.35
5/13/2018 9:00 PM 82 51 0.01 0 0.23
5/13/2018 10:00 PM 80 56 0 0 0.19
5/13/2018 11:00 PM 79 60 0 0 0.11
Data Summary 79 60 25.13 0.00 2.70